Terminal Aerodrome Forecast
Issued by NWS Nashville, TN

Home | Current Version | Previous Version | Text Only | Print | Product List | Glossary On
Versions: 1 2 3 4 5 6 7 8 9 10 11 12 13 14 15 16 17 18 19 20
000
FTUS44 KOHX 161200 AAA
TAFBNA
TAF AMD
KBNA 161247Z 1613/1712 34005KT P6SM SCT015 BKN080
      TEMPO 1613/1616 4SM SHRA OVC015
     FM161800 35006KT P6SM BKN040
     FM170100 36003KT P6SM SCT250=

USA.gov is the U.S. government's official web portal to all federal, state and local government web resources and services.